Time;durP1;ratioP1;P1;durP2;ratioP2;P2;SDS_P1;SDS_P2;PMS_P1;PMS_P2;Temp;Humidity;BMP_temperature;BMP_pressure;BME280_temperature;BME280_humidity;BME280_pressure;Samples;Min_cycle;Max_cycle;Signal;HPM_P1;HPM_P2
2022/01/26 00:00:55;;;;;;;0.00;0.00;;;2.70;88.10;;;;;;4177256;28;20079;-58
2022/01/26 00:06:07;;;;;;;0.00;0.00;;;2.80;87.90;;;;;;4163026;28;20125;-58
2022/01/26 00:08:29;;;;;;;0.00;0.00;;;2.70;87.70;;;;;;4161211;28;20046;-61
2022/01/26 00:10:52;;;;;;;0.00;0.00;;;2.70;87.70;;;;;;4175078;28;20060;-60
2022/01/26 00:13:14;;;;;;;0.00;0.00;;;2.70;87.70;;;;;;4175471;28;20053;-60
2022/01/26 00:15:37;;;;;;;0.00;0.00;;;2.70;87.70;;;;;;4147637;28;20049;-59
2022/01/26 00:18:00;;;;;;;0.00;0.00;;;2.80;87.70;;;;;;4175027;28;20049;-59
2022/01/26 00:21:04;;;;;;;0.00;0.00;;;2.70;87.50;;;;;;4176448;28;20049;-59
2022/01/26 00:34:18;;;;;;;0.00;0.00;;;2.60;87.50;;;;;;4195116;28;20472;-59
2022/01/26 00:41:03;;;;;;;0.00;0.00;;;2.70;87.30;;;;;;4194324;28;20132;-61
2022/01/26 00:43:26;;;;;;;0.00;0.00;;;2.70;87.10;;;;;;4194921;28;20623;-60
2022/01/26 00:45:55;;;;;;;0.00;0.00;;;2.60;87.10;;;;;;4167497;28;20471;-61
2022/01/26 00:48:20;;;;;;;0.00;0.00;;;2.60;87.10;;;;;;4180385;28;20049;-61
2022/01/26 00:50:49;;;;;;;0.00;0.00;;;2.60;87.10;;;;;;4180687;28;20067;-61
2022/01/26 00:53:12;;;;;;;0.00;0.00;;;2.60;87.30;;;;;;4194730;28;20120;-60
2022/01/26 00:55:34;;;;;;;0.00;0.00;;;2.60;87.30;;;;;;4194416;28;20056;-59
2022/01/26 00:57:57;;;;;;;0.00;0.00;;;2.60;87.30;;;;;;4194487;28;20448;-61
2022/01/26 01:00:26;;;;;;;0.00;0.00;;;2.60;87.40;;;;;;4192849;28;20040;-60
2022/01/26 01:02:51;;;;;;;0.00;0.00;;;2.60;87.40;;;;;;4163959;28;20085;-59
2022/01/26 01:05:27;;;;;;;0.00;0.00;;;2.60;87.30;;;;;;4176739;28;20041;-59
2022/01/26 01:07:57;;;;;;;0.00;0.00;;;2.60;87.40;;;;;;4162020;28;20048;-59
2022/01/26 01:10:23;;;;;;;0.00;0.00;;;2.60;87.40;;;;;;4178265;28;20114;-58
2022/01/26 01:12:58;;;;;;;0.00;0.00;;;2.50;87.40;;;;;;4180538;28;20048;-60
2022/01/26 01:15:28;;;;;;;0.00;0.00;;;2.50;87.40;;;;;;4180324;28;20083;-58
2022/01/26 01:17:57;;;;;;;0.00;0.00;;;2.50;87.40;;;;;;4180067;28;20055;-58
2022/01/26 01:30:44;;;;;;;0.00;0.00;;;2.50;87.80;;;;;;4179789;28;20068;-58
2022/01/26 01:33:22;;;;;;;0.00;0.00;;;2.50;87.90;;;;;;4163238;28;20119;-60
2022/01/26 01:36:05;;;;;;;0.00;0.00;;;2.50;87.80;;;;;;4164278;28;20421;-60
2022/01/26 01:38:41;;;;;;;0.00;0.00;;;2.50;87.90;;;;;;4164228;28;20402;-61
2022/01/26 01:41:11;;;;;;;0.00;0.00;;;2.50;87.90;;;;;;4163544;28;20045;-60
2022/01/26 01:43:37;;;;;;;0.00;0.00;;;2.50;87.90;;;;;;4163336;28;20558;-59
2022/01/26 01:46:02;;;;;;;0.00;0.00;;;2.50;88.50;;;;;;4164323;28;20553;-59
2022/01/26 01:48:32;;;;;;;0.00;0.00;;;2.50;87.90;;;;;;4162856;28;20045;-60
2022/01/26 01:50:58;;;;;;;0.00;0.00;;;2.50;88.00;;;;;;4163045;28;20050;-60
2022/01/26 01:53:37;;;;;;;0.00;0.00;;;2.50;88.00;;;;;;4164205;28;20046;-59
2022/01/26 01:56:14;;;;;;;0.00;0.00;;;2.50;88.00;;;;;;4164430;28;20634;-59
2022/01/26 01:58:43;;;;;;;0.00;0.00;;;2.50;88.00;;;;;;4163767;28;20068;-59
2022/01/26 02:01:16;;;;;;;0.00;0.00;;;2.50;88.10;;;;;;4153862;28;20042;-60
2022/01/26 02:03:49;;;;;;;0.00;0.00;;;2.40;88.10;;;;;;4146713;28;20421;-60
2022/01/26 02:06:22;;;;;;;0.00;0.00;;;2.40;88.20;;;;;;4163556;28;20133;-60
2022/01/26 02:08:55;;;;;;;0.00;0.00;;;2.40;88.40;;;;;;4162957;28;20045;-61
2022/01/26 02:11:18;;;;;;;0.00;0.00;;;2.50;88.60;;;;;;4163744;28;20060;-61
2022/01/26 02:13:55;;;;;;;0.00;0.00;;;2.50;88.60;;;;;;4163497;28;20061;-60
2022/01/26 02:16:29;;;;;;;0.00;0.00;;;2.50;88.90;;;;;;4163427;28;20056;-61
2022/01/26 02:19:21;;;;;;;0.00;0.00;;;2.50;89.10;;;;;;4163826;28;20077;-61
2022/01/26 02:54:21;;;;;;;0.00;0.00;;;2.40;88.00;;;;;;4161963;28;20045;-60
2022/01/26 03:01:53;;;;;;;0.00;0.00;;;2.20;88.50;;;;;;4161861;28;20058;-60
2022/01/26 03:04:39;;;;;;;0.00;0.00;;;2.20;88.90;;;;;;4161879;28;20049;-58
2022/01/26 03:10:00;;;;;;;0.00;0.00;;;2.20;89.10;;;;;;4162063;28;20049;-56
2022/01/26 03:12:32;;;;;;;0.00;0.00;;;2.30;89.10;;;;;;4163639;28;20176;-61
2022/01/26 03:15:11;;;;;;;0.00;0.00;;;2.30;89.20;;;;;;4178631;28;20049;-59
2022/01/26 03:18:04;;;;;;;0.00;0.00;;;2.30;89.10;;;;;;4191432;28;20052;-60
2022/01/26 03:20:25;;;;;;;0.00;0.00;;;2.30;89.10;;;;;;4194272;28;20053;-59
2022/01/26 03:35:51;;;;;;;0.00;0.00;;;2.20;88.90;;;;;;4161801;28;20131;-58
2022/01/26 03:38:57;;;;;;;0.00;0.00;;;2.30;89.00;;;;;;4175222;28;20049;-59
2022/01/26 03:41:33;;;;;;;0.00;0.00;;;2.20;88.40;;;;;;4161692;28;20414;-57
2022/01/26 03:43:56;;;;;;;0.00;0.00;;;2.20;89.20;;;;;;4161514;28;20041;-60
2022/01/26 03:46:19;;;;;;;0.00;0.00;;;2.30;89.10;;;;;;4161225;28;20072;-58
2022/01/26 03:48:42;;;;;;;0.00;0.00;;;2.20;89.10;;;;;;4175551;28;20139;-59
2022/01/26 03:51:05;;;;;;;0.00;0.00;;;2.30;89.30;;;;;;4175100;28;20053;-59
2022/01/26 03:53:27;;;;;;;0.00;0.00;;;2.30;89.10;;;;;;4161516;28;20349;-59
2022/01/26 03:55:49;;;;;;;0.00;0.00;;;2.30;89.20;;;;;;4161507;28;20056;-60
2022/01/26 03:58:12;;;;;;;0.00;0.00;;;2.30;89.30;;;;;;4160989;28;20132;-59
2022/01/26 04:00:36;;;;;;;0.00;0.00;;;2.20;89.30;;;;;;4161376;28;20158;-60
2022/01/26 04:03:05;;;;;;;0.00;0.00;;;2.20;89.70;;;;;;4161586;28;20554;-58
2022/01/26 04:05:29;;;;;;;0.00;0.00;;;2.20;90.00;;;;;;4152307;28;20104;-58
2022/01/26 04:07:57;;;;;;;0.00;0.00;;;2.20;90.20;;;;;;4162155;28;20519;-60
2022/01/26 04:10:34;;;;;;;0.00;0.00;;;2.30;90.40;;;;;;4162047;28;20128;-59
2022/01/26 04:12:56;;;;;;;0.00;0.00;;;2.20;90.50;;;;;;4148500;28;20660;-59
2022/01/26 04:15:27;;;;;;;0.00;0.00;;;2.30;90.70;;;;;;4148523;28;20080;-59
2022/01/26 04:17:50;;;;;;;0.00;0.00;;;2.40;90.60;;;;;;4161836;28;20064;-55
2022/01/26 04:20:12;;;;;;;0.00;0.00;;;2.30;90.60;;;;;;4164393;28;20049;-59
2022/01/26 04:22:48;;;;;;;0.00;0.00;;;2.30;90.60;;;;;;4178397;28;20053;-56
2022/01/26 04:25:12;;;;;;;0.00;0.00;;;2.20;90.70;;;;;;4178525;28;20131;-60
2022/01/26 04:27:40;;;;;;;0.00;0.00;;;2.10;91.20;;;;;;4178634;28;20056;-61
2022/01/26 04:30:04;;;;;;;0.00;0.00;;;2.10;91.30;;;;;;4163154;28;20045;-60
2022/01/26 04:32:26;;;;;;;0.00;0.00;;;2.10;91.30;;;;;;4149446;28;20116;-60
2022/01/26 04:34:49;;;;;;;0.00;0.00;;;2.00;91.70;;;;;;4164401;28;20447;-55
2022/01/26 04:39:49;;;;;;;0.00;0.00;;;2.00;92.20;;;;;;4178213;28;20041;-61
2022/01/26 04:42:18;;;;;;;0.00;0.00;;;2.00;92.10;;;;;;4177571;28;20053;-59
2022/01/26 04:44:47;;;;;;;0.00;0.00;;;1.90;92.30;;;;;;4148093;28;20046;-56
2022/01/26 04:47:09;;;;;;;0.00;0.00;;;1.90;92.30;;;;;;4147868;28;20079;-59
2022/01/26 04:49:34;;;;;;;0.00;0.00;;;2.00;92.40;;;;;;4147996;28;20096;-57
2022/01/26 04:51:56;;;;;;;0.00;0.00;;;1.90;92.40;;;;;;4161437;28;20116;-60
2022/01/26 04:54:19;;;;;;;0.00;0.00;;;1.90;92.60;;;;;;4148485;28;20480;-58
2022/01/26 04:56:42;;;;;;;0.00;0.00;;;2.00;92.50;;;;;;4164235;28;20557;-59
2022/01/26 04:59:05;;;;;;;0.00;0.00;;;2.20;92.30;;;;;;4164055;28;20077;-59
2022/01/26 05:01:27;;;;;;;0.00;0.00;;;2.20;92.10;;;;;;4170335;28;20045;-60
2022/01/26 05:03:49;;;;;;;0.00;0.00;;;2.30;92.00;;;;;;4194979;28;20052;-60
2022/01/26 05:06:12;;;;;;;0.00;0.00;;;2.30;91.90;;;;;;4180565;28;20041;-59
2022/01/26 05:08:36;;;;;;;0.00;0.00;;;2.40;91.80;;;;;;4181079;28;20053;-59
2022/01/26 05:10:59;;;;;;;0.00;0.00;;;2.40;91.80;;;;;;4194416;28;20052;-59
2022/01/26 05:13:41;;;;;;;0.00;0.00;;;2.40;91.70;;;;;;4169725;28;20621;-59
2022/01/26 05:16:06;;;;;;;0.00;0.00;;;2.50;91.70;;;;;;4180473;28;20135;-58
2022/01/26 05:18:29;;;;;;;0.00;0.00;;;2.50;91.60;;;;;;4166842;28;20040;-58
2022/01/26 05:20:52;;;;;;;0.00;0.00;;;2.40;91.50;;;;;;4194435;28;20540;-56
2022/01/26 05:23:14;;;;;;;0.00;0.00;;;2.40;91.60;;;;;;4180849;28;20132;-55
2022/01/26 05:25:37;;;;;;;0.00;0.00;;;2.40;91.60;;;;;;4180349;28;20063;-59
2022/01/26 05:27:59;;;;;;;0.00;0.00;;;2.50;91.60;;;;;;4180568;28;20098;-56
2022/01/26 05:30:22;;;;;;;0.00;0.00;;;2.50;91.50;;;;;;4180158;28;20110;-56
2022/01/26 05:32:57;;;;;;;0.00;0.00;;;2.50;91.40;;;;;;4171488;28;20054;-57
2022/01/26 05:35:20;;;;;;;0.00;0.00;;;2.50;91.40;;;;;;4170654;28;20057;-56
2022/01/26 05:37:43;;;;;;;0.00;0.00;;;2.60;91.50;;;;;;4151195;28;20045;-59
2022/01/26 05:40:07;;;;;;;0.00;0.00;;;2.60;91.50;;;;;;4163106;28;20124;-53
2022/01/26 05:42:35;;;;;;;0.00;0.00;;;2.50;91.50;;;;;;4163949;28;20098;-55
2022/01/26 05:45:02;;;;;;;0.00;0.00;;;2.50;91.60;;;;;;4163781;28;20045;-57
2022/01/26 05:47:25;;;;;;;0.00;0.00;;;2.50;91.70;;;;;;4163571;28;20060;-56
2022/01/26 05:49:47;;;;;;;0.00;0.00;;;2.50;91.60;;;;;;4150581;28;20093;-60
2022/01/26 05:52:10;;;;;;;0.00;0.00;;;2.50;91.50;;;;;;4163333;28;20083;-58
2022/01/26 05:54:33;;;;;;;0.00;0.00;;;2.50;91.40;;;;;;4160232;28;20050;-58
2022/01/26 05:56:55;;;;;;;0.00;0.00;;;2.40;91.40;;;;;;4153422;28;20053;-56
2022/01/26 05:59:20;;;;;;;0.00;0.00;;;2.40;91.40;;;;;;4154559;28;20053;-56
2022/01/26 06:01:43;;;;;;;0.00;0.00;;;2.50;91.60;;;;;;4152520;28;20056;-56
2022/01/26 06:04:05;;;;;;;0.00;0.00;;;2.50;91.50;;;;;;4163362;28;20049;-59
2022/01/26 06:06:28;;;;;;;0.00;0.00;;;2.50;91.50;;;;;;4165554;28;20065;-60
2022/01/26 06:08:50;;;;;;;0.00;0.00;;;2.50;91.40;;;;;;4166453;28;20045;-58
2022/01/26 06:11:13;;;;;;;0.00;0.00;;;2.50;91.40;;;;;;4179588;28;20044;-60
2022/01/26 06:13:35;;;;;;;0.00;0.00;;;2.40;91.50;;;;;;4166080;28;20099;-54
2022/01/26 06:15:58;;;;;;;0.00;0.00;;;2.40;91.40;;;;;;4179750;28;20438;-50
2022/01/26 06:18:21;;;;;;;0.00;0.00;;;2.50;91.30;;;;;;4179253;28;20080;-57
2022/01/26 06:20:44;;;;;;;0.00;0.00;;;2.50;91.30;;;;;;4179385;28;20104;-59
2022/01/26 06:23:07;;;;;;;0.00;0.00;;;2.50;91.20;;;;;;4193692;28;20072;-60
2022/01/26 06:25:30;;;;;;;0.00;0.00;;;2.60;91.20;;;;;;4179486;28;20467;-60
2022/01/26 06:27:55;;;;;;;0.00;0.00;;;2.50;91.10;;;;;;4164849;28;20601;-59
2022/01/26 06:30:19;;;;;;;0.00;0.00;;;2.60;91.30;;;;;;4163462;28;20454;-58
2022/01/26 06:32:51;;;;;;;0.00;0.00;;;2.60;91.30;;;;;;4163016;28;20640;-58
2022/01/26 06:35:16;;;;;;;0.00;0.00;;;2.70;91.30;;;;;;4162821;28;20400;-60
2022/01/26 06:37:38;;;;;;;0.00;0.00;;;2.70;91.20;;;;;;4162857;28;20095;-59
2022/01/26 06:40:02;;;;;;;0.00;0.00;;;2.70;91.20;;;;;;4147574;28;20500;-60
2022/01/26 06:42:29;;;;;;;0.00;0.00;;;2.60;91.20;;;;;;4159677;28;20438;-59
2022/01/26 06:47:32;;;;;;;0.00;0.00;;;2.60;91.40;;;;;;4146260;28;20049;-56
2022/01/26 06:49:55;;;;;;;0.00;0.00;;;2.60;91.40;;;;;;4146323;28;20053;-53
2022/01/26 06:52:19;;;;;;;0.00;0.00;;;2.60;91.40;;;;;;4175523;28;20048;-53
2022/01/26 06:54:42;;;;;;;0.00;0.00;;;2.60;91.50;;;;;;4162464;28;20139;-56
2022/01/26 06:57:04;;;;;;;0.00;0.00;;;2.60;91.50;;;;;;4162620;28;20129;-57
2022/01/26 06:59:27;;;;;;;0.00;0.00;;;2.60;91.50;;;;;;4162691;28;20399;-57
2022/01/26 07:01:49;;;;;;;0.00;0.00;;;2.50;91.60;;;;;;4162104;28;20072;-59
2022/01/26 07:04:12;;;;;;;0.00;0.00;;;2.50;91.60;;;;;;4148830;28;20166;-60
2022/01/26 07:06:34;;;;;;;0.00;0.00;;;2.50;91.70;;;;;;4176507;28;20051;-59
2022/01/26 07:08:57;;;;;;;0.00;0.00;;;2.50;91.60;;;;;;4162599;28;20056;-59
2022/01/26 07:11:19;;;;;;;0.00;0.00;;;2.60;91.70;;;;;;4162296;28;20052;-59
2022/01/26 07:13:42;;;;;;;0.00;0.00;;;2.60;91.70;;;;;;4162695;28;20091;-59
2022/01/26 07:21:27;;;;;;;0.00;0.00;;;2.70;91.60;;;;;;4161962;28;20060;-59
2022/01/26 07:23:50;;;;;;;0.00;0.00;;;2.80;91.50;;;;;;4162285;28;20334;-60
2022/01/26 07:26:12;;;;;;;0.00;0.00;;;2.80;91.40;;;;;;4157922;28;20049;-59
2022/01/26 07:28:38;;;;;;;0.00;0.00;;;2.80;91.40;;;;;;4158344;28;20046;-56
2022/01/26 07:31:04;;;;;;;0.00;0.00;;;2.70;91.40;;;;;;4145690;28;20053;-57
2022/01/26 07:33:27;;;;;;;0.00;0.00;;;2.70;91.40;;;;;;4145628;28;20434;-57
2022/01/26 07:35:50;;;;;;;0.00;0.00;;;2.60;91.70;;;;;;4158970;28;20060;-58
2022/01/26 07:38:13;;;;;;;0.00;0.00;;;2.60;91.50;;;;;;4161811;28;20049;-59
2022/01/26 07:40:36;;;;;;;0.00;0.00;;;2.60;91.50;;;;;;4160449;28;20076;-59
2022/01/26 07:42:58;;;;;;;0.00;0.00;;;2.70;91.60;;;;;;4161985;28;20045;-57
2022/01/26 07:45:21;;;;;;;0.00;0.00;;;2.60;91.70;;;;;;4161774;28;20075;-59
2022/01/26 07:47:44;;;;;;;0.00;0.00;;;2.40;91.70;;;;;;4161902;28;20101;-59
2022/01/26 07:50:12;;;;;;;0.00;0.00;;;2.40;91.80;;;;;;4161592;28;20045;-58
2022/01/26 07:52:40;;;;;;;0.00;0.00;;;2.40;91.90;;;;;;4161400;28;20038;-58
2022/01/26 07:55:03;;;;;;;0.00;0.00;;;2.40;91.90;;;;;;4161982;28;20045;-59
2022/01/26 07:57:26;;;;;;;0.00;0.00;;;2.50;91.90;;;;;;4175837;28;20048;-56
2022/01/26 07:59:48;;;;;;;0.00;0.00;;;2.70;91.90;;;;;;4161553;28;20073;-57
2022/01/26 08:02:11;;;;;;;0.00;0.00;;;2.60;91.90;;;;;;4161185;28;20526;-57
2022/01/26 08:04:34;;;;;;;0.00;0.00;;;2.70;92.00;;;;;;4161819;28;20072;-53
2022/01/26 08:06:56;;;;;;;0.00;0.00;;;2.80;92.00;;;;;;4161997;28;20603;-56
2022/01/26 08:09:19;;;;;;;0.00;0.00;;;3.00;91.90;;;;;;4147881;28;20161;-58
2022/01/26 08:11:41;;;;;;;0.00;0.00;;;3.10;91.80;;;;;;4161615;28;20041;-55
2022/01/26 08:14:04;;;;;;;0.00;0.00;;;3.10;91.70;;;;;;4161829;28;20139;-57
2022/01/26 08:16:26;;;;;;;0.00;0.00;;;3.10;91.60;;;;;;4161372;28;20049;-58
2022/01/26 08:18:49;;;;;;;0.00;0.00;;;3.10;91.70;;;;;;4161361;28;20521;-58
2022/01/26 08:21:12;;;;;;;0.00;0.00;;;3.10;91.60;;;;;;4153120;28;20058;-58
2022/01/26 08:23:36;;;;;;;0.00;0.00;;;3.10;91.50;;;;;;4143243;28;20052;-58
2022/01/26 08:26:00;;;;;;;0.00;0.00;;;3.10;91.40;;;;;;4146945;28;20053;-62
2022/01/26 08:28:29;;;;;;;0.00;0.00;;;3.20;91.30;;;;;;4146598;28;20045;-59
2022/01/26 08:30:52;;;;;;;0.00;0.00;;;3.00;91.30;;;;;;4161247;28;20041;-58
2022/01/26 08:33:15;;;;;;;0.00;0.00;;;3.00;91.30;;;;;;4175415;28;20128;-59
2022/01/26 08:35:38;;;;;;;0.00;0.00;;;2.90;91.70;;;;;;4161407;28;20489;-57
2022/01/26 08:38:01;;;;;;;0.00;0.00;;;3.00;91.70;;;;;;4161518;28;20589;-55
2022/01/26 08:40:24;;;;;;;0.00;0.00;;;3.00;91.50;;;;;;4163862;28;20136;-59
2022/01/26 08:42:47;;;;;;;0.00;0.00;;;3.10;91.30;;;;;;4166563;28;20137;-60
2022/01/26 08:45:15;;;;;;;0.00;0.00;;;3.20;91.30;;;;;;4189403;28;20502;-59
2022/01/26 08:47:37;;;;;;;0.00;0.00;;;3.20;91.20;;;;;;4177705;28;20045;-59
2022/01/26 08:50:00;;;;;;;0.00;0.00;;;3.10;91.20;;;;;;4175173;28;20045;-60
2022/01/26 08:52:22;;;;;;;0.00;0.00;;;3.20;91.20;;;;;;4148612;28;20865;-59
2022/01/26 08:54:44;;;;;;;0.00;0.00;;;3.10;90.90;;;;;;4164539;28;20041;-59
2022/01/26 08:57:07;;;;;;;0.00;0.00;;;3.10;91.00;;;;;;4170552;28;20061;-59
2022/01/26 08:59:29;;;;;;;0.00;0.00;;;3.20;91.00;;;;;;4194610;28;20059;-60
2022/01/26 09:01:52;;;;;;;0.00;0.00;;;3.10;90.90;;;;;;4194283;28;20047;-59
2022/01/26 09:04:15;;;;;;;0.00;0.00;;;3.20;90.80;;;;;;4194275;28;20127;-59
2022/01/26 09:06:51;;;;;;;0.00;0.00;;;3.10;90.70;;;;;;4180724;28;20186;-60
2022/01/26 09:09:13;;;;;;;0.00;0.00;;;2.80;90.80;;;;;;4194669;28;20136;-59
2022/01/26 09:11:38;;;;;;;0.00;0.00;;;2.80;91.40;;;;;;4180212;28;20084;-60
2022/01/26 09:14:07;;;;;;;0.00;0.00;;;2.90;91.30;;;;;;4189482;28;20056;-60
2022/01/26 09:16:30;;;;;;;0.00;0.00;;;3.10;91.20;;;;;;4163730;28;20061;-59
2022/01/26 09:18:57;;;;;;;0.00;0.00;;;3.20;90.80;;;;;;4164459;28;20438;-60
2022/01/26 09:21:21;;;;;;;0.00;0.00;;;3.30;90.70;;;;;;4163737;28;20056;-59
2022/01/26 09:23:44;;;;;;;0.00;0.00;;;3.30;90.60;;;;;;4178158;28;20056;-59
2022/01/26 09:26:06;;;;;;;0.00;0.00;;;3.20;90.80;;;;;;4177694;28;20088;-60
2022/01/26 09:28:28;;;;;;;0.00;0.00;;;3.20;90.70;;;;;;4177399;28;20049;-58
2022/01/26 09:30:51;;;;;;;0.00;0.00;;;3.00;90.60;;;;;;4177599;28;20458;-58
2022/01/26 09:33:14;;;;;;;0.00;0.00;;;2.80;91.00;;;;;;4163823;28;20045;-58
2022/01/26 09:35:36;;;;;;;0.00;0.00;;;2.70;91.30;;;;;;4163588;28;20133;-58
2022/01/26 09:37:58;;;;;;;0.00;0.00;;;2.70;91.00;;;;;;4177786;28;20532;-60
2022/01/26 09:40:22;;;;;;;0.00;0.00;;;2.70;91.20;;;;;;4177647;28;20445;-59
2022/01/26 09:42:46;;;;;;;0.00;0.00;;;3.00;91.10;;;;;;4194221;28;20040;-60
2022/01/26 09:45:10;;;;;;;0.00;0.00;;;3.30;91.00;;;;;;4180601;28;20044;-60
2022/01/26 09:47:33;;;;;;;0.00;0.00;;;3.40;90.40;;;;;;4180240;28;20055;-59
2022/01/26 09:50:15;;;;;;;0.00;0.00;;;3.50;90.30;;;;;;4147025;28;20049;-60
2022/01/26 09:52:44;;;;;;;0.00;0.00;;;3.80;90.20;;;;;;4147129;28;20435;-60
2022/01/26 09:55:09;;;;;;;0.00;0.00;;;3.90;90.20;;;;;;4147014;28;20054;-58
2022/01/26 09:57:32;;;;;;;0.00;0.00;;;4.20;90.00;;;;;;4161123;28;20045;-59
2022/01/26 09:59:55;;;;;;;0.00;0.00;;;3.90;88.80;;;;;;4160864;28;20073;-60
2022/01/26 10:02:29;;;;;;;0.00;0.00;;;3.90;90.40;;;;;;4160370;28;20045;-60
2022/01/26 10:05:08;;;;;;;0.00;0.00;;;4.40;90.10;;;;;;4177328;28;20045;-59
2022/01/26 10:15:37;;;;;;;0.00;0.00;;;5.70;87.40;;;;;;4170768;28;20071;-59
2022/01/26 10:18:16;;;;;;;0.00;0.00;;;5.50;85.00;;;;;;4167994;28;20052;-60
2022/01/26 10:20:51;;;;;;;0.00;0.00;;;5.70;86.30;;;;;;4165383;28;20049;-59
2022/01/26 10:23:20;;;;;;;0.00;0.00;;;6.00;85.90;;;;;;4179202;28;20045;-60
2022/01/26 10:25:46;;;;;;;0.00;0.00;;;6.40;83.70;;;;;;4179530;28;20055;-59
2022/01/26 10:28:13;;;;;;;0.00;0.00;;;6.50;83.40;;;;;;4179476;28;20052;-60
2022/01/26 10:30:36;;;;;;;0.00;0.00;;;7.50;83.70;;;;;;4178976;28;20181;-60
2022/01/26 10:32:59;;;;;;;0.00;0.00;;;8.20;80.50;;;;;;4179358;28;20048;-61
2022/01/26 10:35:21;;;;;;;0.00;0.00;;;8.80;78.00;;;;;;4193057;28;20053;-60
2022/01/26 10:37:52;;;;;;;0.00;0.00;;;9.30;78.10;;;;;;4193160;28;20099;-60
2022/01/26 10:40:21;;;;;;;0.00;0.00;;;9.90;73.80;;;;;;4192965;28;20449;-58
2022/01/26 10:42:59;;;;;;;0.00;0.00;;;9.40;72.50;;;;;;4162503;28;20045;-59
2022/01/26 10:46:04;;;;;;;0.00;0.00;;;9.50;74.10;;;;;;4162830;28;20502;-59
2022/01/26 10:49:04;;;;;;;0.00;0.00;;;10.60;71.80;;;;;;4168771;28;20052;-57
2022/01/26 10:54:09;;;;;;;;;;;11.50;65.50;;;;;;4160696;28;20165;-58
2022/01/26 10:56:32;;;;;;;0.00;0.00;;;11.20;66.10;;;;;;4178697;28;19924;-59
2022/01/26 10:58:58;;;;;;;0.00;0.00;;;11.10;65.80;;;;;;4165334;28;20099;-59
2022/01/26 11:01:21;;;;;;;0.00;0.00;;;11.50;65.50;;;;;;4164877;28;20053;-56
2022/01/26 11:03:44;;;;;;;0.00;0.00;;;11.60;62.30;;;;;;4164962;28;20076;-58
2022/01/26 11:06:09;;;;;;;0.00;0.00;;;12.20;63.30;;;;;;4178941;28;20167;-59
2022/01/26 11:08:39;;;;;;;0.00;0.00;;;13.20;61.10;;;;;;4178252;28;20041;-60
2022/01/26 11:11:01;;;;;;;0.00;0.00;;;14.00;59.60;;;;;;4178481;28;20435;-58
2022/01/26 11:13:30;;;;;;;0.00;0.00;;;13.80;57.50;;;;;;4165046;28;20115;-58
2022/01/26 11:15:52;;;;;;;0.00;0.00;;;13.70;58.00;;;;;;4178970;28;20091;-57
2022/01/26 11:18:22;;;;;;;0.00;0.00;;;13.50;57.10;;;;;;4178448;28;20049;-58
2022/01/26 11:20:51;;;;;;;0.00;0.00;;;12.40;58.90;;;;;;4178310;28;20049;-58
2022/01/26 11:23:13;;;;;;;0.00;0.00;;;11.50;59.60;;;;;;4178602;28;20499;-59
2022/01/26 11:25:43;;;;;;;0.00;0.00;;;10.30;62.00;;;;;;4178389;28;20079;-58
2022/01/26 11:28:17;;;;;;;0.00;0.00;;;9.60;63.90;;;;;;4178404;28;20494;-58
2022/01/26 11:30:41;;;;;;;0.00;0.00;;;9.30;65.10;;;;;;4164102;28;20095;-59
2022/01/26 11:33:13;;;;;;;0.00;0.00;;;9.00;66.30;;;;;;4178606;28;20053;-58
2022/01/26 11:35:36;;;;;;;0.00;0.00;;;8.70;66.60;;;;;;4178341;28;20057;-58
2022/01/26 11:38:06;;;;;;;0.00;0.00;;;8.50;67.30;;;;;;4178558;28;20079;-59
2022/01/26 11:46:30;;;;;;;0.00;0.00;;;6.80;71.20;;;;;;4178081;28;20067;-59
2022/01/26 11:49:06;;;;;;;0.00;0.00;;;6.50;73.00;;;;;;4178244;28;20422;-58
2022/01/26 11:51:41;;;;;;;0.00;0.00;;;6.50;74.60;;;;;;4178146;28;20107;-58
2022/01/26 11:54:17;;;;;;;0.00;0.00;;;7.30;74.00;;;;;;4178094;28;20099;-58
2022/01/26 11:56:40;;;;;;;0.00;0.00;;;8.20;73.10;;;;;;4163482;28;20433;-59
2022/01/26 11:59:02;;;;;;;0.00;0.00;;;8.90;71.30;;;;;;4175710;28;20498;-59
2022/01/26 12:01:39;;;;;;;0.00;0.00;;;9.10;70.30;;;;;;4175186;28;20045;-59
2022/01/26 12:04:09;;;;;;;0.00;0.00;;;9.80;69.10;;;;;;4189485;28;20037;-61
2022/01/26 12:06:41;;;;;;;0.00;0.00;;;10.80;66.50;;;;;;4161319;28;20100;-59
2022/01/26 12:09:07;;;;;;;0.00;0.00;;;11.10;64.40;;;;;;4175695;28;20457;-59
2022/01/26 12:11:29;;;;;;;0.00;0.00;;;11.30;64.90;;;;;;4161512;28;20042;-60
2022/01/26 12:13:59;;;;;;;0.00;0.00;;;12.00;61.80;;;;;;4161420;28;20053;-61
2022/01/26 12:16:24;;;;;;;0.00;0.00;;;11.90;61.70;;;;;;4161294;28;20100;-61
2022/01/26 12:19:00;;;;;;;0.00;0.00;;;12.20;62.40;;;;;;4161697;28;20104;-60
2022/01/26 12:38:04;;;;;;;0.00;0.00;;;9.80;62.10;;;;;;4164761;28;20050;-58
2022/01/26 12:43:15;;;;;;;0.00;0.00;;;8.10;67.80;;;;;;4164780;28;20046;-58
2022/01/26 12:45:54;;;;;;;0.00;0.00;;;7.70;70.20;;;;;;4164469;28;20045;-57
2022/01/26 12:48:17;;;;;;;0.00;0.00;;;7.00;73.00;;;;;;4169914;28;20166;-56
2022/01/26 12:50:41;;;;;;;0.00;0.00;;;6.50;75.70;;;;;;4167130;28;20052;-58
2022/01/26 12:53:04;;;;;;;0.00;0.00;;;6.30;77.20;;;;;;4180932;28;20138;-56
2022/01/26 12:55:30;;;;;;;0.00;0.00;;;6.20;77.30;;;;;;4180629;28;20163;-57
2022/01/26 12:57:54;;;;;;;0.00;0.00;;;6.00;77.80;;;;;;4180939;28;20461;-54
2022/01/26 13:00:18;;;;;;;0.00;0.00;;;6.00;78.20;;;;;;4179580;28;20049;-56
2022/01/26 13:02:40;;;;;;;0.00;0.00;;;6.00;78.30;;;;;;4164479;28;20050;-57
2022/01/26 13:05:04;;;;;;;0.00;0.00;;;5.90;79.10;;;;;;4164266;28;20132;-55
2022/01/26 13:07:26;;;;;;;0.00;0.00;;;5.90;79.60;;;;;;4164168;28;20125;-58
2022/01/26 13:09:49;;;;;;;0.00;0.00;;;6.00;79.60;;;;;;4164124;28;20077;-58
2022/01/26 13:12:12;;;;;;;0.00;0.00;;;6.00;79.50;;;;;;4163645;28;20077;-56
2022/01/26 13:14:44;;;;;;;0.00;0.00;;;6.10;79.20;;;;;;4180796;28;20518;-58
2022/01/26 13:17:20;;;;;;;0.00;0.00;;;6.00;78.80;;;;;;4180460;28;20041;-57
2022/01/26 13:24:58;;;;;;;0.00;0.00;;;5.90;79.80;;;;;;4180381;28;20064;-59
2022/01/26 13:27:54;;;;;;;0.00;0.00;;;5.80;80.70;;;;;;4180507;28;20091;-59
2022/01/26 13:36:03;;;;;;;0.00;0.00;;;6.10;80.50;;;;;;4180130;28;20441;-59
2022/01/26 13:39:15;;;;;;;0.00;0.00;;;6.00;80.70;;;;;;4154184;28;20049;-58
2022/01/26 13:44:48;;;;;;;0.00;0.00;;;6.20;80.00;;;;;;4148625;28;20046;-59
2022/01/26 13:50:24;;;;;;;0.00;0.00;;;6.20;78.90;;;;;;4132472;28;20046;-58
2022/01/26 13:59:52;;;;;;;0.00;0.00;;;6.20;82.20;;;;;;4132518;28;20424;-57
2022/01/26 14:02:15;;;;;;;0.00;0.00;;;6.20;82.70;;;;;;4131576;28;20053;-56
2022/01/26 14:04:38;;;;;;;0.00;0.00;;;5.90;83.80;;;;;;4119250;28;20557;-56
2022/01/26 14:07:01;;;;;;;0.00;0.00;;;5.60;85.10;;;;;;4132109;28;20046;-57
2022/01/26 14:09:23;;;;;;;0.00;0.00;;;5.70;85.30;;;;;;4132421;28;20054;-58
2022/01/26 14:11:48;;;;;;;0.00;0.00;;;5.60;85.90;;;;;;4131783;28;20046;-59
2022/01/26 14:14:13;;;;;;;0.00;0.00;;;5.80;85.60;;;;;;4134864;28;20082;-60
2022/01/26 14:16:43;;;;;;;0.00;0.00;;;6.10;84.60;;;;;;4176391;28;20494;-59
2022/01/26 14:26:50;;;;;;;0.00;0.00;;;7.50;82.10;;;;;;4162902;28;20049;-59
2022/01/26 14:32:13;;;;;;;0.00;0.00;;;8.20;79.90;;;;;;4148721;28;20069;-60
2022/01/26 14:35:10;;;;;;;0.00;0.00;;;8.50;78.90;;;;;;4162401;28;20045;-59
2022/01/26 14:51:12;;;;;;;0.00;0.00;;;9.50;74.80;;;;;;4162121;28;20037;-59
2022/01/26 15:40:33;;;;;;;0.00;0.00;;;8.00;76.40;;;;;;4164360;28;20053;-55
2022/01/26 15:50:49;;;;;;;0.00;0.00;;;7.60;76.90;;;;;;4161270;28;20618;-57
2022/01/26 16:35:08;;;;;;;0.00;0.00;;;6.50;79.40;;;;;;4178086;28;20045;-58
2022/01/26 16:38:57;;;;;;;0.00;0.00;;;6.40;78.50;;;;;;4175354;28;20037;-58
2022/01/26 16:52:31;;;;;;;0.00;0.00;;;6.40;78.10;;;;;;4161097;28;20052;-56
2022/01/26 17:11:04;;;;;;;0.00;0.00;;;6.00;79.70;;;;;;4161129;28;20535;-58
2022/01/26 17:25:06;;;;;;;0.00;0.00;;;5.90;79.60;;;;;;4162229;28;20049;-59
2022/01/26 17:34:29;;;;;;;0.00;0.00;;;5.90;79.40;;;;;;4156327;28;20611;-59
2022/01/26 17:34:37;;;;;;;0.00;0.00;;;5.80;79.10;;;;;;4147200;28;20045;-59
2022/01/26 17:46:44;;;;;;;0.00;0.00;;;5.40;79.00;;;;;;4177086;28;20715;-59
2022/01/26 18:14:59;;;;;;;0.00;0.00;;;5.30;80.20;;;;;;4176936;28;20146;-58
2022/01/26 18:16:22;;;;;;;0.00;0.00;;;5.30;80.30;;;;;;4153121;28;20500;-59
2022/01/26 18:50:00;;;;;;;;;;;4.90;81.40;;;;;;4163096;28;20103;-59
2022/01/26 18:52:29;;;;;;;0.00;0.00;;;4.90;81.40;;;;;;4162234;28;20012;-60
2022/01/26 18:54:51;;;;;;;0.00;0.00;;;4.80;81.20;;;;;;4162695;28;20037;-60
2022/01/26 18:57:14;;;;;;;0.00;0.00;;;4.80;82.00;;;;;;4164263;28;20512;-59
2022/01/26 18:59:37;;;;;;;0.00;0.00;;;4.80;81.50;;;;;;4167441;28;20041;-60
2022/01/26 19:01:59;;;;;;;0.00;0.00;;;4.80;81.70;;;;;;4176132;28;20430;-60
2022/01/26 19:04:44;;;;;;;0.00;0.00;;;4.80;81.80;;;;;;4162181;28;20530;-58
2022/01/26 19:07:07;;;;;;;0.00;0.00;;;4.80;81.80;;;;;;4162342;28;20482;-59
2022/01/26 19:09:34;;;;;;;0.00;0.00;;;4.70;81.70;;;;;;4176187;28;20063;-59
2022/01/26 19:11:58;;;;;;;0.00;0.00;;;4.70;81.70;;;;;;4175950;28;20049;-59
2022/01/26 19:14:25;;;;;;;0.00;0.00;;;4.70;81.80;;;;;;4175985;28;20095;-60
2022/01/26 19:16:57;;;;;;;0.00;0.00;;;4.70;81.90;;;;;;4176564;28;20065;-59
2022/01/26 19:19:32;;;;;;;0.00;0.00;;;4.70;82.10;;;;;;4176206;28;20041;-60